K42 EFJY-EFJY

Flight info

Callsign K42
Flight time 0h 40m
Altitude 1500
Route POHJA AANEKOSKI TA TC
Aircraft G115/L-S/C

Departure

Time 2026-04-25 15:55
Airport Jyväskylä Airport (EFJY)

Arrival

Time 2026-04-25 16:35
Airport Jyväskylä Airport (EFJY)
Time Latitude Longitude Altitude Speed Heading
2026-04-25 15:37 62.40395 25.65580 464 ft 0 kts 90°
2026-04-25 15:49 62.40395 25.65581 464 ft 1 kts 90°
2026-04-25 15:49 62.40367 25.65615 463 ft 6 kts 176°
2026-04-25 15:49 62.40320 25.65665 463 ft 12 kts 109°
2026-04-25 15:49 62.40289 25.65856 460 ft 14 kts 107°
2026-04-25 15:50 62.40327 25.66020 464 ft 11 kts 45°
2026-04-25 15:50 62.40382 25.66136 472 ft 13 kts 44°
2026-04-25 15:50 62.40381 25.66282 474 ft 16 kts 135°
2026-04-25 15:50 62.40290 25.66486 474 ft 22 kts 135°
2026-04-25 15:51 62.40182 25.66725 475 ft 21 kts 129°
2026-04-25 15:51 62.40148 25.66801 474 ft 20 kts 134°
2026-04-25 15:51 62.39990 25.67157 471 ft 19 kts 135°
2026-04-25 15:51 62.39904 25.67352 468 ft 19 kts 135°
2026-04-25 15:52 62.39808 25.67564 467 ft 20 kts 133°
2026-04-25 15:52 62.39695 25.67818 462 ft 22 kts 134°
2026-04-25 15:52 62.39587 25.68059 455 ft 23 kts 131°
2026-04-25 15:52 62.39506 25.68355 456 ft 22 kts 118°
2026-04-25 15:53 62.39444 25.68612 463 ft 15 kts 118°
2026-04-25 15:53 62.39430 25.68667 464 ft 0 kts 118°
2026-04-25 15:53 62.39425 25.68687 464 ft 7 kts 120°
2026-04-25 15:53 62.39406 25.68840 464 ft 13 kts 58°
2026-04-25 15:54 62.39455 25.68936 463 ft 1 kts 358°
2026-04-25 15:54 62.39460 25.68930 463 ft 0 kts 317°
2026-04-25 15:54 62.39575 25.68678 461 ft 50 kts 315°
2026-04-25 15:54 62.39845 25.67990 566 ft 64 kts 305°
2026-04-25 15:55 62.40118 25.67256 718 ft 67 kts 313°
2026-04-25 15:55 62.40450 25.66466 944 ft 74 kts 313°
2026-04-25 15:55 62.40836 25.65675 1113 ft 81 kts 325°
2026-04-25 15:55 62.41347 25.65013 1200 ft 87 kts 339°
2026-04-25 15:56 62.41911 25.64494 1248 ft 90 kts 338°
2026-04-25 15:56 62.42501 25.63913 1240 ft 98 kts 337°
2026-04-25 15:56 62.42911 25.63500 1256 ft 98 kts 337°
2026-04-25 15:56 62.43548 25.62953 1270 ft 97 kts 343°
2026-04-25 15:57 62.44199 25.62557 1291 ft 98 kts 347°
2026-04-25 15:57 62.44857 25.62168 1321 ft 98 kts 343°
2026-04-25 15:57 62.45507 25.61721 1347 ft 97 kts 344°
2026-04-25 15:57 62.46170 25.61337 1364 ft 99 kts 353°
2026-04-25 15:58 62.46868 25.61200 1350 ft 104 kts 356°
2026-04-25 15:58 62.47605 25.61140 1342 ft 107 kts 356°
2026-04-25 15:58 62.48360 25.61025 1315 ft 110 kts 353°
2026-04-25 15:58 62.49118 25.60941 1321 ft 107 kts 357°
2026-04-25 15:59 62.49847 25.60846 1313 ft 106 kts 356°
2026-04-25 15:59 62.50591 25.60673 1293 ft 107 kts 354°
2026-04-25 15:59 62.51330 25.60405 1313 ft 108 kts 351°
2026-04-25 15:59 62.52059 25.60086 1347 ft 104 kts 351°
2026-04-25 16:00 62.52758 25.59779 1368 ft 103 kts 350°
2026-04-25 16:00 62.53229 25.59564 1400 ft 103 kts 351°
2026-04-25 16:00 62.54192 25.59196 1388 ft 109 kts 353°
2026-04-25 16:00 62.54989 25.59021 1394 ft 119 kts 356°
2026-04-25 16:01 62.55818 25.58976 1413 ft 120 kts
2026-04-25 16:01 62.56659 25.59152 1385 ft 125 kts
2026-04-25 16:01 62.57537 25.59394 1327 ft 127 kts
2026-04-25 16:01 62.58407 25.59639 1308 ft 126 kts
2026-04-25 16:02 62.59271 25.59866 1293 ft 125 kts
2026-04-25 16:02 62.60131 25.60115 1305 ft 123 kts
2026-04-25 16:02 62.60983 25.60346 1314 ft 123 kts
2026-04-25 16:02 62.61794 25.60894 1297 ft 127 kts 33°
2026-04-25 16:03 62.62251 25.62498 1351 ft 129 kts 77°
2026-04-25 16:03 62.62066 25.64311 1536 ft 124 kts 114°
2026-04-25 16:03 62.61593 25.65814 1772 ft 117 kts 119°
2026-04-25 16:03 62.61134 25.67271 1962 ft 116 kts 120°
2026-04-25 16:04 62.60659 25.68781 2072 ft 116 kts 118°
2026-04-25 16:04 62.60230 25.70205 2361 ft 108 kts 114°
2026-04-25 16:04 62.59854 25.71616 2605 ft 108 kts 112°
2026-04-25 16:04 62.59486 25.73025 2829 ft 109 kts 112°
2026-04-25 16:05 62.59113 25.74501 2969 ft 116 kts 112°
2026-04-25 16:05 62.58718 25.76113 3023 ft 126 kts 112°
2026-04-25 16:05 62.57846 25.79668 2986 ft 140 kts 116°
2026-04-25 16:06 62.57315 25.81493 2925 ft 146 kts 119°
2026-04-25 16:06 62.56646 25.83190 2911 ft 147 kts 133°
2026-04-25 16:06 62.55869 25.84603 2968 ft 145 kts 139°
2026-04-25 16:06 62.55302 25.86205 3066 ft 129 kts 90°
2026-04-25 16:07 62.55475 25.87942 3156 ft 117 kts 47°
2026-04-25 16:07 62.55910 25.88611 3149 ft 115 kts 18°
2026-04-25 16:07 62.56896 25.88129 3154 ft 119 kts 317°
2026-04-25 16:07 62.57160 25.86392 3175 ft 129 kts 266°
2026-04-25 16:08 62.56663 25.84790 3334 ft 133 kts 218°
2026-04-25 16:08 62.55719 25.84559 3263 ft 146 kts 158°
2026-04-25 16:08 62.55046 25.86077 3207 ft 140 kts 102°
2026-04-25 16:08 62.55136 25.88062 3218 ft 125 kts 53°
2026-04-25 16:09 62.55761 25.89009 3374 ft 109 kts
2026-04-25 16:09 62.56422 25.88387 3475 ft 112 kts 310°
2026-04-25 16:09 62.56531 25.86681 3546 ft 126 kts 261°
2026-04-25 16:09 62.55958 25.85077 3488 ft 145 kts 216°
2026-04-25 16:10 62.54975 25.84503 3458 ft 150 kts 178°
2026-04-25 16:10 62.53999 25.85112 3422 ft 145 kts 153°
2026-04-25 16:10 62.53139 25.85961 3477 ft 129 kts 153°
2026-04-25 16:10 62.52351 25.86794 3498 ft 123 kts 144°
2026-04-25 16:11 62.51777 25.88148 3418 ft 123 kts 117°
2026-04-25 16:11 62.51326 25.89688 3444 ft 119 kts 116°
2026-04-25 16:11 62.50835 25.91156 3463 ft 127 kts 127°
2026-04-25 16:11 62.50220 25.92585 3497 ft 128 kts 121°
2026-04-25 16:12 62.49770 25.94231 3426 ft 130 kts 119°
2026-04-25 16:12 62.49151 25.95677 3414 ft 134 kts 130°
2026-04-25 16:12 62.48465 25.97109 3398 ft 138 kts 132°
2026-04-25 16:12 62.48007 25.98044 3420 ft 135 kts 131°
2026-04-25 16:13 62.47140 26.00015 3425 ft 136 kts 124°
2026-04-25 16:13 62.46584 26.01586 3483 ft 133 kts 118°
2026-04-25 16:13 62.46165 26.03344 3488 ft 131 kts 98°
2026-04-25 16:13 62.46216 26.05201 3407 ft 120 kts 55°
2026-04-25 16:14 62.46804 26.06058 3367 ft 109 kts 358°
2026-04-25 16:14 62.47540 26.06024 3311 ft 108 kts
2026-04-25 16:14 62.48255 26.06108 3339 ft 100 kts
2026-04-25 16:14 62.48909 26.05996 3408 ft 96 kts 355°
2026-04-25 16:15 62.49615 26.05864 3427 ft 104 kts 355°
2026-04-25 16:15 62.50342 26.05692 3473 ft 108 kts 351°
2026-04-25 16:15 62.51074 26.05345 3426 ft 102 kts 348°
2026-04-25 16:15 62.51748 26.05044 3368 ft 97 kts 347°
2026-04-25 16:16 62.52376 26.04877 3318 ft 86 kts 352°
2026-04-25 16:16 62.52967 26.04646 3239 ft 91 kts 346°
2026-04-25 16:16 62.53571 26.04332 3288 ft 91 kts 348°
2026-04-25 16:16 62.54221 26.03920 3279 ft 101 kts 344°
2026-04-25 16:17 62.54861 26.03364 3364 ft 94 kts 335°
2026-04-25 16:17 62.55422 26.02698 3351 ft 89 kts 331°
2026-04-25 16:17 62.55801 26.01654 3367 ft 87 kts 300°
2026-04-25 16:17 62.55850 26.00308 3327 ft 98 kts 280°
2026-04-25 16:18 62.55866 25.98767 3423 ft 106 kts 280°
2026-04-25 16:18 62.55875 25.98218 3447 ft 110 kts 279°
2026-04-25 16:18 62.55918 25.95273 3526 ft 121 kts 274°
2026-04-25 16:18 62.55877 25.93494 3591 ft 116 kts 273°
2026-04-25 16:19 62.55889 25.91740 3551 ft 117 kts 284°
2026-04-25 16:19 62.56100 25.90102 3590 ft 112 kts 300°
2026-04-25 16:19 62.56471 25.88533 3438 ft 122 kts 304°
2026-04-25 16:20 62.57321 25.85125 2976 ft 132 kts 301°
2026-04-25 16:20 62.57694 25.83366 2877 ft 125 kts 300°
2026-04-25 16:20 62.57600 25.79583 2474 ft 145 kts 240°
2026-04-25 16:21 62.56861 25.78035 2257 ft 148 kts 219°
2026-04-25 16:21 62.55932 25.77139 2080 ft 149 kts 194°
2026-04-25 16:21 62.54883 25.77005 1786 ft 154 kts 174°
2026-04-25 16:21 62.53844 25.77520 1530 ft 154 kts 158°
2026-04-25 16:22 62.52913 25.78544 1422 ft 146 kts 144°
2026-04-25 16:22 62.52118 25.79820 1342 ft 140 kts 140°
2026-04-25 16:22 62.51217 25.80551 1201 ft 144 kts 173°
2026-04-25 16:22 62.50234 25.80551 1225 ft 140 kts 184°
2026-04-25 16:23 62.49263 25.80371 1275 ft 139 kts 187°
2026-04-25 16:23 62.48293 25.80060 1217 ft 143 kts 189°
2026-04-25 16:23 62.47312 25.79686 1151 ft 143 kts 190°
2026-04-25 16:23 62.46340 25.79242 1150 ft 138 kts 196°
2026-04-25 16:24 62.45416 25.78753 1208 ft 139 kts 193°
2026-04-25 16:24 62.44434 25.78428 1171 ft 147 kts 186°
2026-04-25 16:24 62.43428 25.78153 1169 ft 147 kts 188°
2026-04-25 16:24 62.42428 25.77809 1172 ft 145 kts 190°
2026-04-25 16:25 62.41776 25.77591 1201 ft 141 kts 190°
2026-04-25 16:25 62.41139 25.77349 1197 ft 139 kts 190°
2026-04-25 16:25 62.39648 25.76094 1141 ft 142 kts 213°
2026-04-25 16:25 62.38826 25.74905 1104 ft 140 kts 217°
2026-04-25 16:26 62.38122 25.73572 883 ft 128 kts 240°
2026-04-25 16:26 62.38043 25.71941 712 ft 106 kts 312°
2026-04-25 16:26 62.38517 25.70997 631 ft 86 kts 317°
2026-04-25 16:26 62.38923 25.70106 533 ft 81 kts 317°
2026-04-25 16:27 62.39298 25.69273 464 ft 69 kts 317°
2026-04-25 16:27 62.39613 25.68556 506 ft 70 kts 319°
2026-04-25 16:27 62.39956 25.67772 666 ft 74 kts 315°
2026-04-25 16:27 62.40322 25.66921 859 ft 79 kts 315°
2026-04-25 16:28 62.40686 25.65977 1060 ft 86 kts 312°
2026-04-25 16:28 62.41152 25.65136 1186 ft 93 kts 349°
2026-04-25 16:28 62.41787 25.65611 1194 ft 105 kts 32°
2026-04-25 16:28 62.42342 25.66642 1141 ft 107 kts 55°
2026-04-25 16:29 62.42385 25.68260 1084 ft 118 kts 110°
2026-04-25 16:29 62.41794 25.69596 1103 ft 128 kts 135°
2026-04-25 16:29 62.41079 25.70829 1178 ft 134 kts 139°
2026-04-25 16:29 62.40310 25.72038 1153 ft 138 kts 143°
2026-04-25 16:30 62.39774 25.72766 1124 ft 134 kts 146°
2026-04-25 16:30 62.38591 25.73237 1096 ft 133 kts 202°
2026-04-25 16:30 62.38100 25.71866 857 ft 114 kts 292°
2026-04-25 16:30 62.38604 25.70763 623 ft 106 kts 323°
2026-04-25 16:31 62.39132 25.69653 502 ft 110 kts 317°
2026-04-25 16:31 62.39656 25.68459 674 ft 107 kts 316°
2026-04-25 16:31 62.40133 25.67347 832 ft 92 kts 316°
2026-04-25 16:31 62.40537 25.66376 887 ft 86 kts 317°
2026-04-25 16:32 62.40968 25.65462 1031 ft 90 kts 327°
2026-04-25 16:32 62.41599 25.65408 1111 ft 101 kts 15°
2026-04-25 16:32 62.42215 25.66203 1137 ft 102 kts 33°
2026-04-25 16:32 62.42541 25.67507 1007 ft 118 kts 97°
2026-04-25 16:33 62.41963 25.68808 1006 ft 118 kts 139°
2026-04-25 16:33 62.41292 25.69790 1101 ft 119 kts 138°
2026-04-25 16:33 62.40643 25.70917 1169 ft 120 kts 133°
2026-04-25 16:33 62.40037 25.72164 1161 ft 120 kts 131°
2026-04-25 16:34 62.39461 25.73358 1107 ft 111 kts 133°
2026-04-25 16:34 62.38743 25.73795 962 ft 116 kts 199°
2026-04-25 16:34 62.38213 25.72685 781 ft 103 kts 258°
2026-04-25 16:34 62.38393 25.71374 640 ft 87 kts 310°
2026-04-25 16:35 62.38777 25.70445 551 ft 82 kts 316°
2026-04-25 16:35 62.39152 25.69597 479 ft 75 kts 317°
2026-04-25 16:35 62.39464 25.68912 463 ft 46 kts 312°
2026-04-25 16:35 62.39618 25.68570 462 ft 28 kts 313°
2026-04-25 16:36 62.39798 25.68164 467 ft 39 kts 312°
2026-04-25 16:36 62.39854 25.68035 471 ft 34 kts 309°
2026-04-25 16:36 62.40074 25.67511 470 ft 18 kts 283°
2026-04-25 16:36 62.40019 25.67307 472 ft 16 kts 225°
2026-04-25 16:37 62.39997 25.67144 471 ft 10 kts 314°
2026-04-25 16:37 62.40068 25.66984 474 ft 18 kts 313°
2026-04-25 16:37 62.40160 25.66778 474 ft 15 kts 311°
2026-04-25 16:37 62.40245 25.66589 473 ft 21 kts 314°
2026-04-25 16:38 62.40336 25.66385 473 ft 16 kts 308°
2026-04-25 16:38 62.40406 25.66204 475 ft 13 kts 271°
2026-04-25 16:38 62.40334 25.66027 465 ft 19 kts 224°
2026-04-25 16:38 62.40248 25.65855 459 ft 17 kts 225°
2026-04-25 16:39 62.40199 25.65758 459 ft 2 kts 219°
2026-04-25 16:39 62.40197 25.65705 460 ft 5 kts 321°
2026-04-25 16:39 62.40214 25.65661 461 ft 1 kts 250°
2026-04-25 16:39 62.40203 25.65631 462 ft 0 kts 232°
2026-04-25 16:40 62.40203 25.65630 462 ft 0 kts 232°